sensor_id;sensor_type;location;lat;lon;timestamp;P1;durP1;ratioP1;P2;durP2;ratioP2
19651;SDS011;9974;52.146;14.668;2023-02-19T00:01:08;3.80;;;2.10;;
19651;SDS011;9974;52.146;14.668;2023-02-19T00:03:38;2.40;;;1.40;;
19651;SDS011;9974;52.146;14.668;2023-02-19T00:06:05;2.57;;;1.37;;
19651;SDS011;9974;52.146;14.668;2023-02-19T00:08:33;1.33;;;1.13;;
19651;SDS011;9974;52.146;14.668;2023-02-19T00:11:02;1.63;;;0.90;;
19651;SDS011;9974;52.146;14.668;2023-02-19T00:13:43;10.13;;;5.53;;
19651;SDS011;9974;52.146;14.668;2023-02-19T00:16:16;1.20;;;0.83;;
19651;SDS011;9974;52.146;14.668;2023-02-19T00:18:47;1.37;;;0.80;;
19651;SDS011;9974;52.146;14.668;2023-02-19T00:21:15;3.30;;;1.87;;
19651;SDS011;9974;52.146;14.668;2023-02-19T00:23:42;3.17;;;1.63;;
19651;SDS011;9974;52.146;14.668;2023-02-19T00:26:09;6.30;;;2.93;;
19651;SDS011;9974;52.146;14.668;2023-02-19T00:28:36;3.17;;;1.97;;
19651;SDS011;9974;52.146;14.668;2023-02-19T00:31:15;2.87;;;1.53;;
19651;SDS011;9974;52.146;14.668;2023-02-19T00:33:43;2.73;;;1.30;;
19651;SDS011;9974;52.146;14.668;2023-02-19T00:36:10;2.07;;;1.40;;
19651;SDS011;9974;52.146;14.668;2023-02-19T00:38:37;4.63;;;2.37;;
19651;SDS011;9974;52.146;14.668;2023-02-19T00:41:04;7.50;;;3.93;;
19651;SDS011;9974;52.146;14.668;2023-02-19T00:43:43;2.97;;;2.17;;
19651;SDS011;9974;52.146;14.668;2023-02-19T00:46:12;5.13;;;2.63;;
19651;SDS011;9974;52.146;14.668;2023-02-19T00:48:39;17.70;;;7.40;;
19651;SDS011;9974;52.146;14.668;2023-02-19T00:51:05;2.97;;;2.00;;
19651;SDS011;9974;52.146;14.668;2023-02-19T00:53:31;3.63;;;2.10;;
19651;SDS011;9974;52.146;14.668;2023-02-19T00:55:57;3.38;;;2.03;;
19651;SDS011;9974;52.146;14.668;2023-02-19T00:58:23;3.42;;;2.08;;
19651;SDS011;9974;52.146;14.668;2023-02-19T01:00:49;2.67;;;1.98;;
19651;SDS011;9974;52.146;14.668;2023-02-19T01:03:15;2.20;;;1.60;;
19651;SDS011;9974;52.146;14.668;2023-02-19T01:05:41;4.70;;;2.10;;
19651;SDS011;9974;52.146;14.668;2023-02-19T01:08:07;3.30;;;2.30;;
19651;SDS011;9974;52.146;14.668;2023-02-19T01:10:34;4.20;;;2.50;;
19651;SDS011;9974;52.146;14.668;2023-02-19T01:13:00;4.80;;;2.33;;
19651;SDS011;9974;52.146;14.668;2023-02-19T01:15:26;3.87;;;2.30;;
19651;SDS011;9974;52.146;14.668;2023-02-19T01:17:52;3.97;;;2.33;;
19651;SDS011;9974;52.146;14.668;2023-02-19T01:20:18;3.90;;;2.67;;
19651;SDS011;9974;52.146;14.668;2023-02-19T01:22:44;4.03;;;2.58;;
19651;SDS011;9974;52.146;14.668;2023-02-19T01:25:10;3.83;;;2.50;;
19651;SDS011;9974;52.146;14.668;2023-02-19T01:27:36;4.27;;;2.50;;
19651;SDS011;9974;52.146;14.668;2023-02-19T01:30:02;5.07;;;3.27;;
19651;SDS011;9974;52.146;14.668;2023-02-19T01:32:28;8.05;;;2.72;;
19651;SDS011;9974;52.146;14.668;2023-02-19T01:34:54;4.00;;;2.40;;
19651;SDS011;9974;52.146;14.668;2023-02-19T01:37:20;5.90;;;3.47;;
19651;SDS011;9974;52.146;14.668;2023-02-19T01:39:46;4.33;;;2.60;;
19651;SDS011;9974;52.146;14.668;2023-02-19T01:42:13;4.03;;;2.65;;
19651;SDS011;9974;52.146;14.668;2023-02-19T01:47:09;4.77;;;2.73;;
19651;SDS011;9974;52.146;14.668;2023-02-19T01:49:40;5.10;;;2.83;;
19651;SDS011;9974;52.146;14.668;2023-02-19T01:52:17;6.13;;;2.70;;
19651;SDS011;9974;52.146;14.668;2023-02-19T01:54:46;5.27;;;3.13;;
19651;SDS011;9974;52.146;14.668;2023-02-19T01:57:18;4.50;;;2.77;;
19651;SDS011;9974;52.146;14.668;2023-02-19T01:59:47;4.17;;;2.70;;
19651;SDS011;9974;52.146;14.668;2023-02-19T02:02:14;4.17;;;2.40;;
19651;SDS011;9974;52.146;14.668;2023-02-19T02:04:40;6.03;;;2.97;;
19651;SDS011;9974;52.146;14.668;2023-02-19T02:07:07;3.47;;;2.47;;
19651;SDS011;9974;52.146;14.668;2023-02-19T02:09:53;4.63;;;2.83;;
19651;SDS011;9974;52.146;14.668;2023-02-19T02:12:38;4.23;;;2.80;;
19651;SDS011;9974;52.146;14.668;2023-02-19T02:15:04;5.20;;;2.95;;
19651;SDS011;9974;52.146;14.668;2023-02-19T02:17:35;5.67;;;3.40;;
19651;SDS011;9974;52.146;14.668;2023-02-19T02:22:52;5.87;;;3.63;;
19651;SDS011;9974;52.146;14.668;2023-02-19T02:25:44;5.50;;;3.40;;
19651;SDS011;9974;52.146;14.668;2023-02-19T02:31:24;6.53;;;4.17;;
19651;SDS011;9974;52.146;14.668;2023-02-19T02:33:56;7.35;;;4.13;;
19651;SDS011;9974;52.146;14.668;2023-02-19T02:36:37;6.23;;;3.90;;
19651;SDS011;9974;52.146;14.668;2023-02-19T02:39:07;8.03;;;4.00;;
19651;SDS011;9974;52.146;14.668;2023-02-19T02:41:42;7.30;;;4.43;;
19651;SDS011;9974;52.146;14.668;2023-02-19T02:44:13;7.90;;;4.30;;
19651;SDS011;9974;52.146;14.668;2023-02-19T02:46:40;6.40;;;4.53;;
19651;SDS011;9974;52.146;14.668;2023-02-19T02:49:18;6.50;;;3.97;;
19651;SDS011;9974;52.146;14.668;2023-02-19T02:51:46;7.83;;;4.67;;
19651;SDS011;9974;52.146;14.668;2023-02-19T02:54:22;7.90;;;4.53;;
19651;SDS011;9974;52.146;14.668;2023-02-19T02:57:10;8.93;;;5.00;;
19651;SDS011;9974;52.146;14.668;2023-02-19T02:59:40;7.77;;;4.90;;
19651;SDS011;9974;52.146;14.668;2023-02-19T03:04:44;8.57;;;5.10;;
19651;SDS011;9974;52.146;14.668;2023-02-19T03:10:40;8.38;;;4.78;;
19651;SDS011;9974;52.146;14.668;2023-02-19T03:13:10;7.70;;;4.75;;
19651;SDS011;9974;52.146;14.668;2023-02-19T03:16:03;6.87;;;4.80;;
19651;SDS011;9974;52.146;14.668;2023-02-19T03:18:59;7.73;;;4.67;;
19651;SDS011;9974;52.146;14.668;2023-02-19T03:21:45;7.33;;;4.60;;
19651;SDS011;9974;52.146;14.668;2023-02-19T03:24:35;7.57;;;4.50;;
19651;SDS011;9974;52.146;14.668;2023-02-19T03:27:24;8.37;;;5.03;;
19651;SDS011;9974;52.146;14.668;2023-02-19T03:29:53;7.80;;;5.37;;
19651;SDS011;9974;52.146;14.668;2023-02-19T03:32:23;8.53;;;4.10;;
19651;SDS011;9974;52.146;14.668;2023-02-19T03:34:55;10.25;;;5.45;;
19651;SDS011;9974;52.146;14.668;2023-02-19T03:37:27;11.37;;;5.33;;
19651;SDS011;9974;52.146;14.668;2023-02-19T03:39:56;12.63;;;7.53;;
19651;SDS011;9974;52.146;14.668;2023-02-19T03:45:19;20.80;;;10.55;;
19651;SDS011;9974;52.146;14.668;2023-02-19T03:47:53;12.87;;;6.57;;
19651;SDS011;9974;52.146;14.668;2023-02-19T03:50:28;14.13;;;7.13;;
19651;SDS011;9974;52.146;14.668;2023-02-19T03:53:33;15.50;;;5.17;;
19651;SDS011;9974;52.146;14.668;2023-02-19T03:56:08;14.70;;;5.53;;
19651;SDS011;9974;52.146;14.668;2023-02-19T04:01:33;9.77;;;6.00;;
19651;SDS011;9974;52.146;14.668;2023-02-19T04:04:12;9.83;;;5.57;;
19651;SDS011;9974;52.146;14.668;2023-02-19T04:07:00;9.37;;;4.60;;
19651;SDS011;9974;52.146;14.668;2023-02-19T04:09:28;10.90;;;5.03;;
19651;SDS011;9974;52.146;14.668;2023-02-19T04:12:02;6.95;;;4.30;;
19651;SDS011;9974;52.146;14.668;2023-02-19T04:14:34;9.73;;;5.38;;
19651;SDS011;9974;52.146;14.668;2023-02-19T04:17:05;8.17;;;3.73;;
19651;SDS011;9974;52.146;14.668;2023-02-19T04:19:34;14.37;;;3.87;;
19651;SDS011;9974;52.146;14.668;2023-02-19T04:22:03;5.53;;;3.33;;
19651;SDS011;9974;52.146;14.668;2023-02-19T04:24:31;7.87;;;3.40;;
19651;SDS011;9974;52.146;14.668;2023-02-19T04:26:59;5.50;;;2.30;;
19651;SDS011;9974;52.146;14.668;2023-02-19T04:29:25;7.63;;;3.30;;
19651;SDS011;9974;52.146;14.668;2023-02-19T04:31:51;7.87;;;2.67;;
19651;SDS011;9974;52.146;14.668;2023-02-19T04:34:17;6.00;;;2.87;;
19651;SDS011;9974;52.146;14.668;2023-02-19T04:36:43;5.17;;;2.60;;
19651;SDS011;9974;52.146;14.668;2023-02-19T04:39:09;9.70;;;3.27;;
19651;SDS011;9974;52.146;14.668;2023-02-19T04:41:35;10.17;;;2.93;;
19651;SDS011;9974;52.146;14.668;2023-02-19T04:44:01;3.93;;;2.50;;
19651;SDS011;9974;52.146;14.668;2023-02-19T04:46:27;9.17;;;2.77;;
19651;SDS011;9974;52.146;14.668;2023-02-19T04:48:54;7.77;;;2.43;;
19651;SDS011;9974;52.146;14.668;2023-02-19T04:51:20;9.10;;;2.50;;
19651;SDS011;9974;52.146;14.668;2023-02-19T04:53:46;9.00;;;2.30;;
19651;SDS011;9974;52.146;14.668;2023-02-19T04:56:13;7.93;;;2.37;;
19651;SDS011;9974;52.146;14.668;2023-02-19T04:58:40;6.90;;;2.20;;
19651;SDS011;9974;52.146;14.668;2023-02-19T05:01:07;6.23;;;2.60;;
19651;SDS011;9974;52.146;14.668;2023-02-19T05:03:34;8.47;;;2.50;;
19651;SDS011;9974;52.146;14.668;2023-02-19T05:06:07;7.10;;;2.63;;
19651;SDS011;9974;52.146;14.668;2023-02-19T05:08:34;8.93;;;4.13;;
19651;SDS011;9974;52.146;14.668;2023-02-19T05:11:00;7.97;;;3.77;;
19651;SDS011;9974;52.146;14.668;2023-02-19T05:13:28;8.27;;;3.10;;
19651;SDS011;9974;52.146;14.668;2023-02-19T05:16:02;8.83;;;2.27;;
19651;SDS011;9974;52.146;14.668;2023-02-19T05:18:30;4.77;;;1.83;;
19651;SDS011;9974;52.146;14.668;2023-02-19T05:20:57;3.83;;;2.40;;
19651;SDS011;9974;52.146;14.668;2023-02-19T05:23:24;4.57;;;2.43;;
19651;SDS011;9974;52.146;14.668;2023-02-19T05:25:51;7.23;;;2.20;;
19651;SDS011;9974;52.146;14.668;2023-02-19T05:28:17;10.57;;;2.40;;
19651;SDS011;9974;52.146;14.668;2023-02-19T05:30:44;5.73;;;2.43;;
19651;SDS011;9974;52.146;14.668;2023-02-19T05:33:14;11.20;;;2.60;;
19651;SDS011;9974;52.146;14.668;2023-02-19T05:35:45;7.83;;;2.83;;
19651;SDS011;9974;52.146;14.668;2023-02-19T05:38:16;3.97;;;1.80;;
19651;SDS011;9974;52.146;14.668;2023-02-19T05:40:43;6.77;;;2.10;;
19651;SDS011;9974;52.146;14.668;2023-02-19T05:43:10;7.10;;;2.43;;
19651;SDS011;9974;52.146;14.668;2023-02-19T05:45:36;8.17;;;2.43;;
19651;SDS011;9974;52.146;14.668;2023-02-19T05:48:03;7.63;;;2.77;;
19651;SDS011;9974;52.146;14.668;2023-02-19T05:50:30;10.87;;;2.73;;
19651;SDS011;9974;52.146;14.668;2023-02-19T05:53:00;10.60;;;2.80;;
19651;SDS011;9974;52.146;14.668;2023-02-19T05:55:27;8.73;;;3.33;;
19651;SDS011;9974;52.146;14.668;2023-02-19T05:57:53;6.63;;;2.50;;
19651;SDS011;9974;52.146;14.668;2023-02-19T06:00:20;6.37;;;2.33;;
19651;SDS011;9974;52.146;14.668;2023-02-19T06:02:46;7.97;;;3.23;;
19651;SDS011;9974;52.146;14.668;2023-02-19T06:05:12;4.07;;;2.63;;
19651;SDS011;9974;52.146;14.668;2023-02-19T06:07:39;5.67;;;2.50;;
19651;SDS011;9974;52.146;14.668;2023-02-19T06:10:06;7.87;;;2.73;;
19651;SDS011;9974;52.146;14.668;2023-02-19T06:12:34;5.60;;;2.43;;
19651;SDS011;9974;52.146;14.668;2023-02-19T06:15:00;11.13;;;3.33;;
19651;SDS011;9974;52.146;14.668;2023-02-19T06:17:26;7.60;;;2.90;;
19651;SDS011;9974;52.146;14.668;2023-02-19T06:19:52;6.80;;;2.63;;
19651;SDS011;9974;52.146;14.668;2023-02-19T06:22:18;6.00;;;2.27;;
19651;SDS011;9974;52.146;14.668;2023-02-19T06:24:44;5.30;;;2.67;;
19651;SDS011;9974;52.146;14.668;2023-02-19T06:27:11;5.13;;;2.37;;
19651;SDS011;9974;52.146;14.668;2023-02-19T06:29:37;7.70;;;2.40;;
19651;SDS011;9974;52.146;14.668;2023-02-19T06:32:03;9.53;;;2.47;;
19651;SDS011;9974;52.146;14.668;2023-02-19T06:34:30;4.27;;;2.00;;
19651;SDS011;9974;52.146;14.668;2023-02-19T06:36:57;6.53;;;2.50;;
19651;SDS011;9974;52.146;14.668;2023-02-19T06:39:23;5.37;;;2.17;;
19651;SDS011;9974;52.146;14.668;2023-02-19T06:41:49;8.90;;;2.50;;
19651;SDS011;9974;52.146;14.668;2023-02-19T06:44:18;8.63;;;3.40;;
19651;SDS011;9974;52.146;14.668;2023-02-19T06:46:44;10.00;;;3.20;;
19651;SDS011;9974;52.146;14.668;2023-02-19T06:49:10;7.90;;;2.87;;
19651;SDS011;9974;52.146;14.668;2023-02-19T06:51:36;5.27;;;2.57;;
19651;SDS011;9974;52.146;14.668;2023-02-19T06:54:02;8.90;;;2.67;;
19651;SDS011;9974;52.146;14.668;2023-02-19T06:56:29;6.43;;;2.50;;
19651;SDS011;9974;52.146;14.668;2023-02-19T06:58:57;7.63;;;2.23;;
19651;SDS011;9974;52.146;14.668;2023-02-19T07:01:25;5.00;;;2.10;;
19651;SDS011;9974;52.146;14.668;2023-02-19T07:03:52;8.70;;;1.83;;
19651;SDS011;9974;52.146;14.668;2023-02-19T07:06:18;4.00;;;1.30;;
19651;SDS011;9974;52.146;14.668;2023-02-19T07:08:45;5.70;;;2.10;;
19651;SDS011;9974;52.146;14.668;2023-02-19T07:11:12;4.30;;;1.93;;
19651;SDS011;9974;52.146;14.668;2023-02-19T07:13:38;7.23;;;2.53;;
19651;SDS011;9974;52.146;14.668;2023-02-19T07:16:05;7.30;;;2.17;;
19651;SDS011;9974;52.146;14.668;2023-02-19T07:18:32;5.83;;;2.10;;
19651;SDS011;9974;52.146;14.668;2023-02-19T07:21:05;4.90;;;2.13;;
19651;SDS011;9974;52.146;14.668;2023-02-19T07:23:32;5.40;;;2.00;;
19651;SDS011;9974;52.146;14.668;2023-02-19T07:25:58;4.80;;;2.23;;
19651;SDS011;9974;52.146;14.668;2023-02-19T07:28:24;4.77;;;2.10;;
19651;SDS011;9974;52.146;14.668;2023-02-19T07:30:51;8.23;;;3.07;;
19651;SDS011;9974;52.146;14.668;2023-02-19T07:33:17;4.27;;;2.27;;
19651;SDS011;9974;52.146;14.668;2023-02-19T07:35:44;5.17;;;2.50;;
19651;SDS011;9974;52.146;14.668;2023-02-19T07:38:10;10.17;;;3.30;;
19651;SDS011;9974;52.146;14.668;2023-02-19T07:40:36;10.03;;;3.67;;
19651;SDS011;9974;52.146;14.668;2023-02-19T07:43:03;7.30;;;2.30;;
19651;SDS011;9974;52.146;14.668;2023-02-19T07:45:29;7.03;;;2.67;;
19651;SDS011;9974;52.146;14.668;2023-02-19T07:47:55;5.13;;;2.40;;
19651;SDS011;9974;52.146;14.668;2023-02-19T07:50:21;3.67;;;1.77;;
19651;SDS011;9974;52.146;14.668;2023-02-19T07:52:47;11.20;;;2.37;;
19651;SDS011;9974;52.146;14.668;2023-02-19T07:55:13;3.93;;;1.33;;
19651;SDS011;9974;52.146;14.668;2023-02-19T07:57:39;4.37;;;1.23;;
19651;SDS011;9974;52.146;14.668;2023-02-19T08:00:05;3.03;;;1.20;;
19651;SDS011;9974;52.146;14.668;2023-02-19T08:02:31;2.77;;;1.60;;
19651;SDS011;9974;52.146;14.668;2023-02-19T08:05:16;5.67;;;1.73;;
19651;SDS011;9974;52.146;14.668;2023-02-19T08:07:42;5.13;;;1.63;;
19651;SDS011;9974;52.146;14.668;2023-02-19T08:10:08;4.93;;;1.30;;
19651;SDS011;9974;52.146;14.668;2023-02-19T08:12:54;4.37;;;1.20;;
19651;SDS011;9974;52.146;14.668;2023-02-19T08:15:39;5.73;;;1.20;;
19651;SDS011;9974;52.146;14.668;2023-02-19T08:18:05;7.90;;;1.40;;
19651;SDS011;9974;52.146;14.668;2023-02-19T08:20:31;4.10;;;0.90;;
19651;SDS011;9974;52.146;14.668;2023-02-19T08:22:58;5.27;;;1.20;;
19651;SDS011;9974;52.146;14.668;2023-02-19T08:25:24;4.50;;;1.03;;
19651;SDS011;9974;52.146;14.668;2023-02-19T08:27:50;2.20;;;1.00;;
19651;SDS011;9974;52.146;14.668;2023-02-19T08:30:16;2.00;;;0.85;;
19651;SDS011;9974;52.146;14.668;2023-02-19T08:32:42;3.03;;;1.05;;
19651;SDS011;9974;52.146;14.668;2023-02-19T08:35:08;8.03;;;1.10;;
19651;SDS011;9974;52.146;14.668;2023-02-19T08:37:34;2.35;;;0.70;;
19651;SDS011;9974;52.146;14.668;2023-02-19T08:40:00;3.30;;;0.90;;
19651;SDS011;9974;52.146;14.668;2023-02-19T08:42:27;2.97;;;0.98;;
19651;SDS011;9974;52.146;14.668;2023-02-19T08:44:53;4.13;;;1.00;;
19651;SDS011;9974;52.146;14.668;2023-02-19T08:47:20;2.33;;;0.85;;
19651;SDS011;9974;52.146;14.668;2023-02-19T08:49:46;4.20;;;1.88;;
19651;SDS011;9974;52.146;14.668;2023-02-19T08:52:12;3.20;;;0.98;;
19651;SDS011;9974;52.146;14.668;2023-02-19T08:54:38;2.85;;;0.82;;
19651;SDS011;9974;52.146;14.668;2023-02-19T08:57:04;7.38;;;1.65;;
19651;SDS011;9974;52.146;14.668;2023-02-19T08:59:30;5.45;;;1.20;;
19651;SDS011;9974;52.146;14.668;2023-02-19T09:01:59;7.15;;;1.55;;
19651;SDS011;9974;52.146;14.668;2023-02-19T09:04:25;3.47;;;1.42;;
19651;SDS011;9974;52.146;14.668;2023-02-19T09:06:51;4.03;;;1.40;;
19651;SDS011;9974;52.146;14.668;2023-02-19T09:09:18;4.32;;;1.45;;
19651;SDS011;9974;52.146;14.668;2023-02-19T09:11:44;3.03;;;1.77;;
19651;SDS011;9974;52.146;14.668;2023-02-19T09:14:10;8.68;;;2.28;;
19651;SDS011;9974;52.146;14.668;2023-02-19T09:16:36;5.22;;;1.25;;
19651;SDS011;9974;52.146;14.668;2023-02-19T09:19:02;9.15;;;4.82;;
19651;SDS011;9974;52.146;14.668;2023-02-19T09:21:29;11.88;;;2.58;;
19651;SDS011;9974;52.146;14.668;2023-02-19T09:23:55;10.32;;;4.78;;
19651;SDS011;9974;52.146;14.668;2023-02-19T09:26:21;6.65;;;2.95;;
19651;SDS011;9974;52.146;14.668;2023-02-19T09:28:48;4.60;;;1.55;;
19651;SDS011;9974;52.146;14.668;2023-02-19T09:31:14;8.57;;;3.05;;
19651;SDS011;9974;52.146;14.668;2023-02-19T09:33:44;6.45;;;3.05;;
19651;SDS011;9974;52.146;14.668;2023-02-19T09:36:11;6.22;;;2.50;;
19651;SDS011;9974;52.146;14.668;2023-02-19T09:38:38;8.07;;;4.22;;
19651;SDS011;9974;52.146;14.668;2023-02-19T09:41:08;9.02;;;2.50;;
19651;SDS011;9974;52.146;14.668;2023-02-19T09:43:41;11.20;;;5.10;;
19651;SDS011;9974;52.146;14.668;2023-02-19T09:46:17;4.63;;;2.33;;
19651;SDS011;9974;52.146;14.668;2023-02-19T09:48:52;7.88;;;2.25;;
19651;SDS011;9974;52.146;14.668;2023-02-19T09:51:22;6.82;;;2.08;;
19651;SDS011;9974;52.146;14.668;2023-02-19T09:53:49;11.27;;;2.90;;
19651;SDS011;9974;52.146;14.668;2023-02-19T09:56:17;9.75;;;2.95;;
19651;SDS011;9974;52.146;14.668;2023-02-19T09:58:46;6.80;;;2.75;;
19651;SDS011;9974;52.146;14.668;2023-02-19T10:01:17;12.55;;;4.53;;
19651;SDS011;9974;52.146;14.668;2023-02-19T10:03:44;11.55;;;4.30;;
19651;SDS011;9974;52.146;14.668;2023-02-19T10:08:49;14.70;;;4.22;;
19651;SDS011;9974;52.146;14.668;2023-02-19T10:11:16;15.85;;;8.10;;
19651;SDS011;9974;52.146;14.668;2023-02-19T10:13:44;14.13;;;6.22;;
19651;SDS011;9974;52.146;14.668;2023-02-19T10:16:14;10.95;;;2.58;;
19651;SDS011;9974;52.146;14.668;2023-02-19T10:18:46;5.15;;;2.47;;
19651;SDS011;9974;52.146;14.668;2023-02-19T10:21:15;8.63;;;3.80;;
19651;SDS011;9974;52.146;14.668;2023-02-19T10:23:43;8.98;;;2.78;;
19651;SDS011;9974;52.146;14.668;2023-02-19T10:26:10;20.65;;;11.52;;
19651;SDS011;9974;52.146;14.668;2023-02-19T10:28:36;20.63;;;9.55;;
19651;SDS011;9974;52.146;14.668;2023-02-19T10:31:04;10.68;;;3.83;;
19651;SDS011;9974;52.146;14.668;2023-02-19T10:33:50;7.15;;;3.83;;
19651;SDS011;9974;52.146;14.668;2023-02-19T10:36:24;14.45;;;4.13;;
19651;SDS011;9974;52.146;14.668;2023-02-19T10:38:54;15.02;;;5.20;;
19651;SDS011;9974;52.146;14.668;2023-02-19T10:41:21;13.00;;;3.22;;
19651;SDS011;9974;52.146;14.668;2023-02-19T10:43:50;9.07;;;2.63;;
19651;SDS011;9974;52.146;14.668;2023-02-19T10:46:30;23.38;;;10.05;;
19651;SDS011;9974;52.146;14.668;2023-02-19T10:49:03;17.17;;;7.68;;
19651;SDS011;9974;52.146;14.668;2023-02-19T10:51:37;18.08;;;5.32;;
19651;SDS011;9974;52.146;14.668;2023-02-19T10:54:05;30.70;;;14.02;;
19651;SDS011;9974;52.146;14.668;2023-02-19T10:56:40;26.67;;;10.60;;
19651;SDS011;9974;52.146;14.668;2023-02-19T11:01:58;31.35;;;13.73;;
19651;SDS011;9974;52.146;14.668;2023-02-19T11:04:26;5.78;;;1.67;;
19651;SDS011;9974;52.146;14.668;2023-02-19T11:06:58;7.78;;;2.03;;
19651;SDS011;9974;52.146;14.668;2023-02-19T11:09:39;6.55;;;1.40;;
19651;SDS011;9974;52.146;14.668;2023-02-19T11:12:07;7.30;;;1.77;;
19651;SDS011;9974;52.146;14.668;2023-02-19T11:14:33;3.28;;;1.08;;
19651;SDS011;9974;52.146;14.668;2023-02-19T11:17:00;10.20;;;1.92;;
19651;SDS011;9974;52.146;14.668;2023-02-19T11:19:30;7.78;;;1.27;;
19651;SDS011;9974;52.146;14.668;2023-02-19T11:25:03;4.55;;;1.45;;
19651;SDS011;9974;52.146;14.668;2023-02-19T11:30:40;7.72;;;1.95;;
19651;SDS011;9974;52.146;14.668;2023-02-19T11:35:47;7.32;;;1.90;;
19651;SDS011;9974;52.146;14.668;2023-02-19T11:38:34;4.72;;;1.17;;
19651;SDS011;9974;52.146;14.668;2023-02-19T11:43:36;5.35;;;1.40;;
19651;SDS011;9974;52.146;14.668;2023-02-19T11:46:11;5.57;;;1.17;;
19651;SDS011;9974;52.146;14.668;2023-02-19T11:51:37;3.88;;;1.90;;
19651;SDS011;9974;52.146;14.668;2023-02-19T11:54:29;4.95;;;1.70;;
19651;SDS011;9974;52.146;14.668;2023-02-19T11:59:40;7.75;;;1.95;;
19651;SDS011;9974;52.146;14.668;2023-02-19T12:02:20;2.67;;;0.70;;
19651;SDS011;9974;52.146;14.668;2023-02-19T12:22:45;5.45;;;1.15;;
19651;SDS011;9974;52.146;14.668;2023-02-19T12:28:50;4.03;;;1.02;;
19651;SDS011;9974;52.146;14.668;2023-02-19T12:31:38;10.23;;;2.10;;
19651;SDS011;9974;52.146;14.668;2023-02-19T12:37:06;6.07;;;2.00;;
19651;SDS011;9974;52.146;14.668;2023-02-19T12:45:26;7.97;;;1.70;;
19651;SDS011;9974;52.146;14.668;2023-02-19T12:48:05;7.22;;;1.55;;
19651;SDS011;9974;52.146;14.668;2023-02-19T12:50:38;9.05;;;1.50;;
19651;SDS011;9974;52.146;14.668;2023-02-19T12:53:07;4.13;;;0.98;;
19651;SDS011;9974;52.146;14.668;2023-02-19T12:55:54;10.13;;;1.25;;
19651;SDS011;9974;52.146;14.668;2023-02-19T12:58:25;3.05;;;0.93;;
19651;SDS011;9974;52.146;14.668;2023-02-19T13:00:56;9.65;;;1.50;;
19651;SDS011;9974;52.146;14.668;2023-02-19T13:03:38;5.97;;;1.30;;
19651;SDS011;9974;52.146;14.668;2023-02-19T13:06:11;7.55;;;1.75;;
19651;SDS011;9974;52.146;14.668;2023-02-19T13:08:59;6.25;;;1.60;;
19651;SDS011;9974;52.146;14.668;2023-02-19T13:11:36;8.35;;;1.30;;
19651;SDS011;9974;52.146;14.668;2023-02-19T13:14:10;10.07;;;1.48;;
19651;SDS011;9974;52.146;14.668;2023-02-19T13:17:00;7.38;;;2.55;;
19651;SDS011;9974;52.146;14.668;2023-02-19T13:19:40;4.68;;;1.17;;
19651;SDS011;9974;52.146;14.668;2023-02-19T13:25:21;4.50;;;1.00;;
19651;SDS011;9974;52.146;14.668;2023-02-19T13:30:58;3.13;;;0.85;;
19651;SDS011;9974;52.146;14.668;2023-02-19T13:33:43;4.82;;;0.95;;
19651;SDS011;9974;52.146;14.668;2023-02-19T13:36:25;1.92;;;0.68;;
19651;SDS011;9974;52.146;14.668;2023-02-19T13:38:51;5.10;;;1.55;;
19651;SDS011;9974;52.146;14.668;2023-02-19T13:41:31;5.78;;;1.55;;
19651;SDS011;9974;52.146;14.668;2023-02-19T13:44:05;6.53;;;1.23;;
19651;SDS011;9974;52.146;14.668;2023-02-19T13:46:40;8.25;;;1.77;;
19651;SDS011;9974;52.146;14.668;2023-02-19T13:49:23;7.18;;;0.90;;
19651;SDS011;9974;52.146;14.668;2023-02-19T13:51:50;9.88;;;1.58;;
19651;SDS011;9974;52.146;14.668;2023-02-19T13:54:27;3.78;;;1.13;;
19651;SDS011;9974;52.146;14.668;2023-02-19T13:59:57;2.35;;;0.73;;
19651;SDS011;9974;52.146;14.668;2023-02-19T14:07:36;3.38;;;0.65;;
19651;SDS011;9974;52.146;14.668;2023-02-19T14:10:13;3.30;;;0.70;;
19651;SDS011;9974;52.146;14.668;2023-02-19T14:14:22;5.38;;;1.13;;
19651;SDS011;9974;52.146;14.668;2023-02-19T14:16:47;4.20;;;0.98;;
19651;SDS011;9974;52.146;14.668;2023-02-19T14:30:47;3.58;;;1.13;;
19651;SDS011;9974;52.146;14.668;2023-02-19T14:33:18;5.65;;;1.05;;
19651;SDS011;9974;52.146;14.668;2023-02-19T14:41:38;1.00;;;0.52;;
19651;SDS011;9974;52.146;14.668;2023-02-19T14:44:13;5.78;;;1.35;;
19651;SDS011;9974;52.146;14.668;2023-02-19T14:46:53;6.63;;;1.05;;
19651;SDS011;9974;52.146;14.668;2023-02-19T14:51:52;6.57;;;1.35;;
19651;SDS011;9974;52.146;14.668;2023-02-19T14:54:34;5.82;;;1.23;;
19651;SDS011;9974;52.146;14.668;2023-02-19T14:57:10;3.63;;;1.38;;
19651;SDS011;9974;52.146;14.668;2023-02-19T15:00:20;7.72;;;2.28;;
19651;SDS011;9974;52.146;14.668;2023-02-19T15:02:45;3.78;;;1.15;;
19651;SDS011;9974;52.146;14.668;2023-02-19T15:05:26;3.83;;;1.10;;
19651;SDS011;9974;52.146;14.668;2023-02-19T15:07:55;7.63;;;1.17;;
19651;SDS011;9974;52.146;14.668;2023-02-19T15:10:23;2.65;;;1.13;;
19651;SDS011;9974;52.146;14.668;2023-02-19T15:12:51;3.70;;;1.00;;
19651;SDS011;9974;52.146;14.668;2023-02-19T15:15:21;4.13;;;0.93;;
19651;SDS011;9974;52.146;14.668;2023-02-19T15:17:53;3.10;;;0.77;;
19651;SDS011;9974;52.146;14.668;2023-02-19T15:20:21;4.40;;;1.00;;
19651;SDS011;9974;52.146;14.668;2023-02-19T15:22:49;5.60;;;0.95;;
19651;SDS011;9974;52.146;14.668;2023-02-19T15:25:17;6.88;;;1.10;;
19651;SDS011;9974;52.146;14.668;2023-02-19T15:27:45;2.00;;;0.80;;
19651;SDS011;9974;52.146;14.668;2023-02-19T15:30:17;5.22;;;1.10;;
19651;SDS011;9974;52.146;14.668;2023-02-19T15:32:52;6.85;;;1.33;;
19651;SDS011;9974;52.146;14.668;2023-02-19T15:35:20;5.78;;;0.95;;
19651;SDS011;9974;52.146;14.668;2023-02-19T15:37:48;3.73;;;1.00;;
19651;SDS011;9974;52.146;14.668;2023-02-19T15:40:15;4.10;;;0.75;;
19651;SDS011;9974;52.146;14.668;2023-02-19T15:42:42;4.22;;;1.00;;
19651;SDS011;9974;52.146;14.668;2023-02-19T15:45:15;3.47;;;1.40;;
19651;SDS011;9974;52.146;14.668;2023-02-19T15:47:47;4.90;;;1.45;;
19651;SDS011;9974;52.146;14.668;2023-02-19T15:52:59;8.60;;;1.43;;
19651;SDS011;9974;52.146;14.668;2023-02-19T15:58:18;6.83;;;1.53;;
19651;SDS011;9974;52.146;14.668;2023-02-19T16:00:53;5.67;;;1.80;;
19651;SDS011;9974;52.146;14.668;2023-02-19T16:03:21;6.97;;;1.90;;
19651;SDS011;9974;52.146;14.668;2023-02-19T16:08:39;6.97;;;1.13;;
19651;SDS011;9974;52.146;14.668;2023-02-19T16:13:47;4.37;;;1.03;;
19651;SDS011;9974;52.146;14.668;2023-02-19T16:16:27;3.17;;;1.33;;
19651;SDS011;9974;52.146;14.668;2023-02-19T16:18:58;1.97;;;1.10;;
19651;SDS011;9974;52.146;14.668;2023-02-19T16:21:25;5.57;;;1.20;;
19651;SDS011;9974;52.146;14.668;2023-02-19T16:23:52;3.30;;;1.10;;
19651;SDS011;9974;52.146;14.668;2023-02-19T16:26:23;3.27;;;1.20;;
19651;SDS011;9974;52.146;14.668;2023-02-19T16:28:52;6.43;;;1.53;;
19651;SDS011;9974;52.146;14.668;2023-02-19T16:31:19;6.53;;;1.90;;
19651;SDS011;9974;52.146;14.668;2023-02-19T16:33:46;5.50;;;1.53;;
19651;SDS011;9974;52.146;14.668;2023-02-19T16:36:14;3.23;;;1.03;;
19651;SDS011;9974;52.146;14.668;2023-02-19T16:38:57;4.20;;;1.80;;
19651;SDS011;9974;52.146;14.668;2023-02-19T16:41:24;8.50;;;4.17;;
19651;SDS011;9974;52.146;14.668;2023-02-19T16:43:50;10.77;;;4.90;;
19651;SDS011;9974;52.146;14.668;2023-02-19T16:46:16;28.63;;;13.80;;
19651;SDS011;9974;52.146;14.668;2023-02-19T16:48:42;19.00;;;10.67;;
19651;SDS011;9974;52.146;14.668;2023-02-19T16:51:10;31.40;;;18.50;;
19651;SDS011;9974;52.146;14.668;2023-02-19T16:53:42;30.63;;;17.83;;
19651;SDS011;9974;52.146;14.668;2023-02-19T16:56:12;13.10;;;7.33;;
19651;SDS011;9974;52.146;14.668;2023-02-19T16:58:42;32.00;;;14.93;;
19651;SDS011;9974;52.146;14.668;2023-02-19T17:01:08;12.90;;;6.53;;
19651;SDS011;9974;52.146;14.668;2023-02-19T17:03:35;29.20;;;13.63;;